createdAt,value
2022-08-27T00:00:19.731Z,9.50
2022-08-27T00:02:47.099Z,9.80
2022-08-27T00:05:15.928Z,8.07
2022-08-27T00:07:43.494Z,8.98
2022-08-27T00:10:14.839Z,9.93
2022-08-27T00:12:42.093Z,11.18
2022-08-27T00:15:09.417Z,12.02
2022-08-27T00:17:39.332Z,11.45
2022-08-27T00:20:06.727Z,11.57
2022-08-27T00:22:33.421Z,11.00
2022-08-27T00:25:00.107Z,12.48
2022-08-27T00:27:27.051Z,12.52
2022-08-27T00:29:53.701Z,12.23
2022-08-27T00:32:20.377Z,13.43
2022-08-27T00:34:47.045Z,13.30
2022-08-27T00:37:13.899Z,12.82
2022-08-27T00:39:40.564Z,12.93
2022-08-27T00:42:07.929Z,13.10
2022-08-27T00:44:34.740Z,12.20
2022-08-27T00:47:06.967Z,13.00
2022-08-27T00:49:42.847Z,12.65
2022-08-27T00:52:29.007Z,12.23
2022-08-27T00:55:08.500Z,13.45
2022-08-27T00:57:38.111Z,12.23
2022-08-27T01:00:08.138Z,12.15
2022-08-27T01:02:35.145Z,12.30
2022-08-27T01:05:12.023Z,12.38
2022-08-27T01:07:43.223Z,12.88
2022-08-27T01:10:18.052Z,11.90
2022-08-27T01:12:45.404Z,11.40
2022-08-27T01:15:21.737Z,12.60
2022-08-27T01:17:49.229Z,12.25
2022-08-27T01:20:20.982Z,11.98
2022-08-27T01:23:00.446Z,12.95
2022-08-27T01:25:28.180Z,11.32
2022-08-27T01:27:58.905Z,12.63
2022-08-27T01:30:25.970Z,11.90
2022-08-27T01:32:53.559Z,12.88
2022-08-27T01:35:21.468Z,12.65
2022-08-27T01:37:52.445Z,12.80
2022-08-27T01:40:19.578Z,12.63
2022-08-27T01:42:50.214Z,13.05
2022-08-27T01:48:12.156Z,11.27
2022-08-27T01:50:40.668Z,10.88
2022-08-27T01:53:11.814Z,10.63
2022-08-27T01:55:40.372Z,10.10
2022-08-27T01:58:10.389Z,9.55
2022-08-27T02:00:44.614Z,9.43
2022-08-27T02:03:12.386Z,8.68
2022-08-27T02:05:44.998Z,9.00
2022-08-27T02:08:13.532Z,8.40
2022-08-27T02:10:40.454Z,8.57
2022-08-27T02:13:07.984Z,8.30
2022-08-27T02:15:35.870Z,7.97
2022-08-27T02:18:05.616Z,7.78
2022-08-27T02:20:32.830Z,7.47
2022-08-27T02:22:59.684Z,7.13
2022-08-27T02:25:26.867Z,7.95
2022-08-27T02:27:58.407Z,7.93
2022-08-27T02:30:25.191Z,7.90
2022-08-27T02:32:52.343Z,7.85
2022-08-27T02:35:21.657Z,7.43
2022-08-27T02:37:48.436Z,6.97
2022-08-27T02:40:17.396Z,7.03
2022-08-27T02:42:44.957Z,7.47
2022-08-27T02:45:12.947Z,6.82
2022-08-27T02:47:39.516Z,7.40
2022-08-27T02:50:07.491Z,6.80
2022-08-27T02:52:34.315Z,7.03
2022-08-27T02:55:01.574Z,7.30
2022-08-27T02:57:28.246Z,7.15
2022-08-27T02:59:55.068Z,7.18
2022-08-27T03:02:24.573Z,7.43
2022-08-27T03:04:54.320Z,6.95
2022-08-27T03:07:20.939Z,7.25
2022-08-27T03:09:47.589Z,7.05
2022-08-27T03:12:14.178Z,7.25
2022-08-27T03:14:40.953Z,7.03
2022-08-27T03:17:07.550Z,6.70
2022-08-27T03:19:34.548Z,7.10
2022-08-27T03:22:01.163Z,6.65
2022-08-27T03:24:27.888Z,6.55
2022-08-27T03:26:56.153Z,6.40
2022-08-27T03:29:22.923Z,6.88
2022-08-27T03:31:49.501Z,7.43
2022-08-27T03:34:19.873Z,7.78
2022-08-27T03:36:46.932Z,7.30
2022-08-27T03:39:13.774Z,8.00
2022-08-27T03:41:54.513Z,7.72
2022-08-27T03:44:24.016Z,8.00
2022-08-27T03:46:52.075Z,8.43
2022-08-27T03:49:21.454Z,7.60
2022-08-27T03:51:52.577Z,8.32
2022-08-27T03:54:19.870Z,7.82
2022-08-27T03:56:46.706Z,7.63
2022-08-27T03:59:13.559Z,7.22
2022-08-27T04:01:40.167Z,7.20
2022-08-27T04:04:06.877Z,7.38
2022-08-27T04:06:34.833Z,6.95
2022-08-27T04:09:02.304Z,7.57
2022-08-27T04:11:28.912Z,7.47
2022-08-27T04:13:56.579Z,7.20
2022-08-27T04:16:23.237Z,8.52
2022-08-27T04:18:49.888Z,8.23
2022-08-27T04:21:16.498Z,8.93
2022-08-27T04:23:43.784Z,8.35
2022-08-27T04:26:11.284Z,10.55
2022-08-27T04:28:39.000Z,10.05
2022-08-27T04:31:12.855Z,11.20
2022-08-27T04:33:51.053Z,11.00
2022-08-27T04:36:18.703Z,11.50
2022-08-27T04:38:45.766Z,10.82
2022-08-27T04:41:12.633Z,10.82
2022-08-27T04:43:39.645Z,10.82
2022-08-27T04:46:09.889Z,11.27
2022-08-27T04:48:36.521Z,11.55
2022-08-27T04:51:05.584Z,12.18
2022-08-27T04:53:33.397Z,12.88
2022-08-27T04:56:00.155Z,13.05
2022-08-27T04:58:26.804Z,14.07
2022-08-27T05:00:57.108Z,12.77
2022-08-27T05:03:24.553Z,13.40
2022-08-27T05:05:52.594Z,13.35
2022-08-27T05:08:19.343Z,13.43
2022-08-27T05:10:48.694Z,13.73
2022-08-27T05:13:16.449Z,13.35
2022-08-27T05:15:43.087Z,12.90
2022-08-27T05:18:10.190Z,13.20
2022-08-27T05:20:48.358Z,12.38
2022-08-27T05:23:18.421Z,12.50
2022-08-27T05:25:47.815Z,13.35
2022-08-27T05:28:16.737Z,13.25
2022-08-27T05:30:52.296Z,12.98
2022-08-27T05:33:25.356Z,13.05
2022-08-27T05:35:54.935Z,13.18
2022-08-27T05:38:23.486Z,12.57
2022-08-27T05:40:50.222Z,13.23
2022-08-27T05:43:18.429Z,12.73
2022-08-27T05:45:48.518Z,13.05
2022-08-27T05:48:16.735Z,12.38
2022-08-27T05:50:44.866Z,12.88
2022-08-27T05:53:12.966Z,12.20
2022-08-27T05:55:44.378Z,12.48
2022-08-27T05:58:13.247Z,12.10
2022-08-27T06:00:39.858Z,11.65
2022-08-27T06:03:07.450Z,12.00
2022-08-27T06:05:34.658Z,12.48
2022-08-27T06:08:01.291Z,12.57
2022-08-27T06:10:28.043Z,13.15
2022-08-27T06:12:56.988Z,12.00
2022-08-27T06:15:23.928Z,12.07
2022-08-27T06:17:50.609Z,12.15
2022-08-27T06:20:17.273Z,11.55
2022-08-27T06:22:44.125Z,11.68
2022-08-27T06:25:10.788Z,10.75
2022-08-27T06:27:37.439Z,11.82
2022-08-27T06:30:04.615Z,11.52
2022-08-27T06:32:31.528Z,10.25
2022-08-27T06:34:58.279Z,10.00
2022-08-27T06:37:25.009Z,9.48
2022-08-27T06:39:51.689Z,8.45
2022-08-27T06:42:18.461Z,8.63
2022-08-27T06:44:52.962Z,8.50
2022-08-27T06:47:21.294Z,8.30
2022-08-27T06:49:47.976Z,8.50
2022-08-27T06:52:15.486Z,8.55
2022-08-27T06:54:42.087Z,9.02
2022-08-27T06:57:08.748Z,8.23
2022-08-27T06:59:35.536Z,8.85
2022-08-27T07:02:03.064Z,8.50
2022-08-27T07:04:32.737Z,8.38
2022-08-27T07:07:01.101Z,8.55
2022-08-27T07:09:27.861Z,8.20
2022-08-27T07:11:54.460Z,8.18
2022-08-27T07:14:21.083Z,8.30
2022-08-27T07:16:48.245Z,9.45
2022-08-27T07:19:16.119Z,8.60
2022-08-27T07:21:44.209Z,9.02
2022-08-27T07:24:10.811Z,9.68
2022-08-27T07:26:40.802Z,9.40
2022-08-27T07:29:10.090Z,9.15
2022-08-27T07:31:37.457Z,9.88
2022-08-27T07:34:05.553Z,8.70
2022-08-27T07:36:33.680Z,8.45
2022-08-27T07:39:01.978Z,7.95
2022-08-27T07:41:33.004Z,8.55
2022-08-27T07:44:00.722Z,7.80
2022-08-27T07:46:27.470Z,8.40
2022-08-27T07:48:55.272Z,8.02
2022-08-27T07:51:23.699Z,8.25
2022-08-27T07:53:50.447Z,8.00
2022-08-27T07:56:17.765Z,7.95
2022-08-27T07:58:45.338Z,10.30
2022-08-27T08:01:13.312Z,10.07
2022-08-27T08:03:41.167Z,9.25
2022-08-27T08:06:14.364Z,9.05
2022-08-27T08:08:41.641Z,9.60
2022-08-27T08:11:12.499Z,10.05
2022-08-27T08:13:39.766Z,10.13
2022-08-27T08:16:07.010Z,9.13
2022-08-27T08:18:34.529Z,9.80
2022-08-27T08:21:07.140Z,9.65
2022-08-27T08:23:33.920Z,8.77
2022-08-27T08:26:01.429Z,7.43
2022-08-27T08:28:28.870Z,6.65
2022-08-27T08:30:56.444Z,6.45
2022-08-27T08:33:23.439Z,5.47
2022-08-27T08:35:50.197Z,5.07
2022-08-27T08:38:18.462Z,5.50
2022-08-27T08:40:50.548Z,4.70
2022-08-27T08:43:23.951Z,4.45
2022-08-27T08:45:51.631Z,3.90
2022-08-27T08:48:22.174Z,4.25
2022-08-27T08:51:13.021Z,4.45
2022-08-27T08:54:03.412Z,4.20
2022-08-27T08:56:54.950Z,4.22
2022-08-27T08:59:44.461Z,4.50
2022-08-27T09:02:13.724Z,3.25
2022-08-27T09:04:42.227Z,3.28
2022-08-27T09:07:36.053Z,3.13
2022-08-27T09:10:13.967Z,3.22
2022-08-27T09:12:40.959Z,2.78
2022-08-27T09:15:29.679Z,2.80
2022-08-27T09:18:14.296Z,2.70
2022-08-27T09:20:46.202Z,2.85
2022-08-27T09:23:26.491Z,2.70
2022-08-27T09:25:53.297Z,3.03
2022-08-27T09:28:24.912Z,3.08
2022-08-27T09:30:53.057Z,3.40
2022-08-27T09:33:19.968Z,3.45
2022-08-27T09:35:46.942Z,3.60
2022-08-27T09:38:59.807Z,3.60
2022-08-27T09:41:30.561Z,3.40
2022-08-27T09:44:11.335Z,3.30
2022-08-27T09:46:38.174Z,3.30
2022-08-27T09:49:16.051Z,3.00
2022-08-27T09:51:45.508Z,2.97
2022-08-27T09:54:22.364Z,3.17
2022-08-27T09:56:50.037Z,3.50
2022-08-27T09:59:21.644Z,4.32
2022-08-27T10:02:07.714Z,4.70
2022-08-27T10:04:51.246Z,4.90
2022-08-27T10:07:37.020Z,4.88
2022-08-27T10:10:06.662Z,4.68
2022-08-27T10:12:46.975Z,4.57
2022-08-27T10:15:14.675Z,4.45
2022-08-27T10:18:09.034Z,4.65
2022-08-27T10:20:47.391Z,4.50
2022-08-27T10:23:26.414Z,4.18
2022-08-27T10:26:20.012Z,4.00
2022-08-27T10:29:09.265Z,3.67
2022-08-27T10:31:45.017Z,4.07
2022-08-27T10:34:25.062Z,3.92
2022-08-27T10:36:59.888Z,3.95
2022-08-27T10:39:46.462Z,4.30
2022-08-27T10:42:38.169Z,3.83
2022-08-27T10:45:31.091Z,4.93
2022-08-27T10:48:15.697Z,4.95
2022-08-27T10:51:11.343Z,5.63
2022-08-27T10:53:53.676Z,6.20
2022-08-27T10:56:35.939Z,6.18
2022-08-27T10:59:25.383Z,6.28
2022-08-27T11:02:13.441Z,7.00
2022-08-27T11:04:45.301Z,7.00
2022-08-27T11:07:38.013Z,6.65
2022-08-27T11:10:14.354Z,6.85
2022-08-27T11:12:45.876Z,7.07
2022-08-27T11:15:15.575Z,6.75
2022-08-27T11:17:48.289Z,7.28
2022-08-27T11:20:28.111Z,6.95
2022-08-27T11:23:08.892Z,7.50
2022-08-27T11:25:43.261Z,7.25
2022-08-27T11:28:11.794Z,6.57
2022-08-27T11:30:52.777Z,6.75
2022-08-27T11:33:41.652Z,6.63
2022-08-27T11:36:29.356Z,7.13
2022-08-27T11:39:22.910Z,6.82
2022-08-27T11:42:09.468Z,6.30
2022-08-27T11:44:42.312Z,6.68
2022-08-27T11:47:21.855Z,6.97
2022-08-27T11:49:58.063Z,6.05
2022-08-27T11:52:41.717Z,6.32
2022-08-27T11:55:20.495Z,6.35
2022-08-27T11:57:50.060Z,5.93
2022-08-27T12:00:30.631Z,5.88
2022-08-27T12:03:03.436Z,5.90
2022-08-27T12:05:36.240Z,5.93
2022-08-27T12:08:33.881Z,5.97
2022-08-27T12:11:44.638Z,6.15
2022-08-27T12:14:17.148Z,5.70
2022-08-27T12:16:56.100Z,5.57
2022-08-27T12:19:55.069Z,5.60
2022-08-27T12:22:39.631Z,5.38
2022-08-27T12:25:06.413Z,5.57
2022-08-27T12:27:34.846Z,6.07
2022-08-27T12:30:23.982Z,6.22
2022-08-27T12:32:51.778Z,6.18
2022-08-27T12:35:20.185Z,5.70
2022-08-27T12:37:57.731Z,5.82
2022-08-27T12:40:27.196Z,6.10
2022-08-27T12:43:14.490Z,6.03
2022-08-27T12:45:49.137Z,6.07
2022-08-27T12:48:22.420Z,5.80
2022-08-27T12:50:55.998Z,6.25
2022-08-27T12:53:41.466Z,5.57
2022-08-27T12:56:28.461Z,5.82
2022-08-27T12:59:04.363Z,6.13
2022-08-27T13:01:52.650Z,6.57
2022-08-27T13:04:30.020Z,5.80
2022-08-27T13:06:57.310Z,6.10
2022-08-27T13:09:33.913Z,6.40
2022-08-27T13:12:03.125Z,5.70
2022-08-27T13:14:37.951Z,5.70
2022-08-27T13:17:09.750Z,5.70
2022-08-27T13:19:44.350Z,5.47
2022-08-27T13:22:11.131Z,5.65
2022-08-27T13:24:50.061Z,5.75
2022-08-27T13:27:27.003Z,5.90
2022-08-27T13:29:55.636Z,5.82
2022-08-27T13:32:24.619Z,5.65
2022-08-27T13:34:51.722Z,5.40
2022-08-27T13:37:34.722Z,5.65
2022-08-27T13:40:01.722Z,5.85
2022-08-27T13:42:28.647Z,5.53
2022-08-27T13:45:06.135Z,5.85
2022-08-27T13:47:42.268Z,5.55
2022-08-27T13:50:22.557Z,5.55
2022-08-27T13:52:50.473Z,5.53
2022-08-27T13:55:17.915Z,5.72
2022-08-27T13:57:47.842Z,5.25
2022-08-27T14:00:23.388Z,6.03
2022-08-27T14:02:55.659Z,6.22
2022-08-27T14:05:23.113Z,6.80
2022-08-27T14:07:52.816Z,6.57
2022-08-27T14:10:43.701Z,6.70
2022-08-27T14:13:16.357Z,6.38
2022-08-27T14:15:55.202Z,5.78
2022-08-27T14:18:48.094Z,6.28
2022-08-27T14:21:13.271Z,6.80
2022-08-27T14:23:39.923Z,5.78
2022-08-27T14:26:08.138Z,6.30
2022-08-27T14:28:34.792Z,5.95
2022-08-27T14:31:01.650Z,6.05
2022-08-27T14:33:28.289Z,5.95
2022-08-27T14:35:55.124Z,5.88
2022-08-27T14:38:24.209Z,5.80
2022-08-27T14:40:54.099Z,6.15
2022-08-27T14:43:21.346Z,6.32
2022-08-27T14:45:52.177Z,6.30
2022-08-27T14:48:28.530Z,6.15
2022-08-27T14:50:56.829Z,5.80
2022-08-27T14:53:23.702Z,6.10
2022-08-27T14:55:51.535Z,5.90
2022-08-27T14:58:19.756Z,5.60
2022-08-27T15:00:46.935Z,6.38
2022-08-27T15:03:13.620Z,6.25
2022-08-27T15:05:40.383Z,6.50
2022-08-27T15:08:12.694Z,5.93
2022-08-27T15:10:39.971Z,6.25
2022-08-27T15:13:06.809Z,6.18
2022-08-27T15:15:33.623Z,6.95
2022-08-27T15:18:00.316Z,6.55
2022-08-27T15:20:27.136Z,6.15
2022-08-27T15:22:53.758Z,6.38
2022-08-27T15:25:20.861Z,5.95
2022-08-27T15:27:47.587Z,5.93
2022-08-27T15:30:16.285Z,6.50
2022-08-27T15:32:46.519Z,6.30
2022-08-27T15:35:16.613Z,5.95
2022-08-27T15:37:43.820Z,5.80
2022-08-27T15:40:13.875Z,6.10
2022-08-27T15:42:41.004Z,6.30
2022-08-27T15:45:09.134Z,6.18
2022-08-27T15:47:35.827Z,6.35
2022-08-27T15:50:02.435Z,6.07
2022-08-27T15:52:41.082Z,6.75
2022-08-27T15:55:18.889Z,6.00
2022-08-27T15:57:45.531Z,6.05
2022-08-27T16:00:12.636Z,6.18
2022-08-27T16:02:41.221Z,5.88
2022-08-27T16:05:07.908Z,5.88
2022-08-27T16:07:34.490Z,5.35
2022-08-27T16:10:01.081Z,5.55
2022-08-27T16:12:27.844Z,5.85
2022-08-27T16:14:55.530Z,5.85
2022-08-27T16:17:23.969Z,5.72
2022-08-27T16:19:50.657Z,5.95
2022-08-27T16:22:17.283Z,5.65
2022-08-27T16:24:44.608Z,5.75
2022-08-27T16:27:11.535Z,6.13
2022-08-27T16:29:38.347Z,6.00
2022-08-27T16:32:10.772Z,5.85
2022-08-27T16:34:37.506Z,6.43
2022-08-27T16:37:04.025Z,6.38
2022-08-27T16:39:33.845Z,6.43
2022-08-27T16:42:03.306Z,5.93
2022-08-27T16:44:29.997Z,6.57
2022-08-27T16:46:56.677Z,6.70
2022-08-27T16:49:23.237Z,6.90
2022-08-27T16:51:53.214Z,5.93
2022-08-27T16:54:19.987Z,6.28
2022-08-27T16:56:46.754Z,6.72
2022-08-27T16:59:13.332Z,6.20
2022-08-27T17:01:41.931Z,6.03
2022-08-27T17:04:14.830Z,5.93
2022-08-27T17:06:45.599Z,5.90
2022-08-27T17:09:12.583Z,5.80
2022-08-27T17:11:41.883Z,5.80
2022-08-27T17:14:09.838Z,5.90
2022-08-27T17:16:37.069Z,5.22
2022-08-27T17:19:05.578Z,6.03
2022-08-27T17:21:33.919Z,5.28
2022-08-27T17:24:01.133Z,5.32
2022-08-27T17:26:29.032Z,5.40
2022-08-27T17:28:55.868Z,5.63
2022-08-27T17:31:32.230Z,5.50
2022-08-27T17:34:00.087Z,5.18
2022-08-27T17:36:29.134Z,4.90
2022-08-27T17:38:56.507Z,5.65
2022-08-27T17:41:43.095Z,5.75
2022-08-27T17:44:20.012Z,5.53
2022-08-27T17:46:47.715Z,5.15
2022-08-27T17:49:14.397Z,5.32
2022-08-27T17:51:41.397Z,5.10
2022-08-27T17:54:25.460Z,5.35
2022-08-27T17:56:52.173Z,4.97
2022-08-27T17:59:18.817Z,5.28
2022-08-27T18:01:45.963Z,5.20
2022-08-27T18:04:12.849Z,4.97
2022-08-27T18:06:40.023Z,5.20
2022-08-27T18:09:06.970Z,5.05
2022-08-27T18:11:37.079Z,4.82
2022-08-27T18:14:05.039Z,4.57
2022-08-27T18:16:48.371Z,4.55
2022-08-27T18:19:24.744Z,4.88
2022-08-27T18:21:57.065Z,5.20
2022-08-27T18:24:23.814Z,4.82
2022-08-27T18:26:54.134Z,5.20
2022-08-27T18:29:21.094Z,4.65
2022-08-27T18:31:47.776Z,5.50
2022-08-27T18:34:20.048Z,5.22
2022-08-27T18:36:48.144Z,4.93
2022-08-27T18:39:14.755Z,5.18
2022-08-27T18:41:42.347Z,4.90
2022-08-27T18:44:16.956Z,4.72
2022-08-27T18:46:45.478Z,5.18
2022-08-27T18:49:12.116Z,5.10
2022-08-27T18:54:24.285Z,5.13
2022-08-27T18:56:51.117Z,5.05
2022-08-27T18:59:20.785Z,5.50
2022-08-27T19:01:50.653Z,5.25
2022-08-27T19:04:17.364Z,5.60
2022-08-27T19:06:44.014Z,5.50
2022-08-27T19:09:10.830Z,5.43
2022-08-27T19:11:38.549Z,5.70
2022-08-27T19:14:05.210Z,5.60
2022-08-27T19:16:46.096Z,5.22
2022-08-27T19:19:17.675Z,5.15
2022-08-27T19:21:49.239Z,5.13
2022-08-27T19:24:20.182Z,5.35
2022-08-27T19:26:48.230Z,5.30
2022-08-27T19:29:18.156Z,5.10
2022-08-27T19:31:48.905Z,4.50
2022-08-27T19:34:15.549Z,4.85
2022-08-27T19:36:43.379Z,4.45
2022-08-27T19:39:12.493Z,4.18
2022-08-27T19:41:39.568Z,3.70
2022-08-27T19:44:06.263Z,3.75
2022-08-27T19:46:33.485Z,3.88
2022-08-27T19:49:00.081Z,3.60
2022-08-27T19:51:26.819Z,3.30
2022-08-27T19:53:54.050Z,3.60
2022-08-27T19:56:21.299Z,3.28
2022-08-27T19:58:48.115Z,3.65
2022-08-27T20:01:15.108Z,3.60
2022-08-27T20:03:42.032Z,3.88
2022-08-27T20:06:09.250Z,3.10
2022-08-27T20:08:35.928Z,3.50
2022-08-27T20:11:02.718Z,3.15
2022-08-27T20:13:33.044Z,3.70
2022-08-27T20:16:00.349Z,3.17
2022-08-27T20:18:27.003Z,3.50
2022-08-27T20:20:53.719Z,3.50
2022-08-27T20:23:20.805Z,3.30
2022-08-27T20:25:47.464Z,3.25
2022-08-27T20:28:37.800Z,3.17
2022-08-27T20:31:02.389Z,3.45
2022-08-27T20:33:29.010Z,3.40
2022-08-27T20:35:58.515Z,3.45
2022-08-27T20:38:25.750Z,3.40
2022-08-27T20:40:52.434Z,4.63
2022-08-27T20:43:19.063Z,4.00
2022-08-27T20:45:46.239Z,3.95
2022-08-27T20:48:13.286Z,4.13
2022-08-27T20:50:42.206Z,3.60
2022-08-27T20:53:09.087Z,3.70
2022-08-27T20:55:35.800Z,3.80
2022-08-27T20:58:11.895Z,3.33
2022-08-27T21:00:41.457Z,3.67
2022-08-27T21:03:09.950Z,3.67
2022-08-27T21:05:38.002Z,3.88
2022-08-27T21:08:06.536Z,3.70
2022-08-27T21:10:33.911Z,3.78
2022-08-27T21:13:05.266Z,3.90
2022-08-27T21:15:33.489Z,3.80
2022-08-27T21:18:00.130Z,4.20
2022-08-27T21:20:26.771Z,3.83
2022-08-27T21:22:53.479Z,3.25
2022-08-27T21:25:20.156Z,3.85
2022-08-27T21:27:46.764Z,3.92
2022-08-27T21:30:13.744Z,3.72
2022-08-27T21:32:40.327Z,3.42
2022-08-27T21:35:07.252Z,3.78
2022-08-27T21:37:34.559Z,3.70
2022-08-27T21:40:01.400Z,3.53
2022-08-27T21:42:27.993Z,3.30
2022-08-27T21:44:54.919Z,3.55
2022-08-27T21:47:21.459Z,3.47
2022-08-27T21:49:48.295Z,3.50
2022-08-27T21:52:15.401Z,3.05
2022-08-27T21:54:42.268Z,3.13
2022-08-27T21:57:10.717Z,3.25
2022-08-27T21:59:44.702Z,3.30
2022-08-27T22:02:35.895Z,3.10
2022-08-27T22:04:58.388Z,3.42
2022-08-27T22:07:24.927Z,3.00
2022-08-27T22:09:51.490Z,2.95
2022-08-27T22:12:18.101Z,3.13
2022-08-27T22:14:44.849Z,3.30
2022-08-27T22:17:11.465Z,3.20
2022-08-27T22:19:38.133Z,3.05
2022-08-27T22:22:04.666Z,3.08
2022-08-27T22:24:31.326Z,3.03
2022-08-27T22:26:57.959Z,3.17
2022-08-27T22:29:24.564Z,3.20
2022-08-27T22:31:51.146Z,3.10
2022-08-27T22:34:18.151Z,3.13
2022-08-27T22:36:44.759Z,2.97
2022-08-27T22:39:11.332Z,2.80
2022-08-27T22:41:38.307Z,3.35
2022-08-27T22:44:08.468Z,2.75
2022-08-27T22:46:35.098Z,2.92
2022-08-27T22:49:01.880Z,2.70
2022-08-27T22:51:28.422Z,3.10
2022-08-27T22:53:55.103Z,2.97
2022-08-27T22:56:21.698Z,2.88
2022-08-27T22:58:48.470Z,2.78
2022-08-27T23:01:21.036Z,2.85
2022-08-27T23:03:48.795Z,2.92
2022-08-27T23:06:15.575Z,3.03
2022-08-27T23:08:42.228Z,2.92
2022-08-27T23:11:08.864Z,2.78
2022-08-27T23:13:35.652Z,2.83
2022-08-27T23:16:02.751Z,3.03
2022-08-27T23:18:29.754Z,2.85
2022-08-27T23:20:56.583Z,3.17
2022-08-27T23:23:24.427Z,2.78
2022-08-27T23:25:56.544Z,2.80
2022-08-27T23:28:23.285Z,2.75
2022-08-27T23:30:50.259Z,2.90
2022-08-27T23:33:17.208Z,2.80
2022-08-27T23:35:43.896Z,2.75
2022-08-27T23:38:10.865Z,2.80
2022-08-27T23:40:37.797Z,2.90
2022-08-27T23:43:04.451Z,2.55
2022-08-27T23:45:31.138Z,2.50
2022-08-27T23:47:57.740Z,2.58
2022-08-27T23:50:33.678Z,2.40
2022-08-27T23:53:02.719Z,2.70
2022-08-27T23:55:29.430Z,2.38
2022-08-27T23:57:56.081Z,2.60
